Time;durP1;ratioP1;P1;durP2;ratioP2;P2;SDS_P1;SDS_P2;PMS_P1;PMS_P2;Temp;Humidity;BMP_temperature;BMP_pressure;BME280_temperature;BME280_humidity;BME280_pressure;Samples;Min_cycle;Max_cycle;Signal;HPM_P1;HPM_P2
2022/01/09 00:01:52;;;;;;;25.05;14.43;;;;;;;1.34;47.01;99165.03;7709682;32;37945;-79
2022/01/09 00:06:09;;;;;;;28.62;15.55;;;;;;;1.59;47.55;99164.09;7709490;32;39863;-78
2022/01/09 00:10:27;;;;;;;29.67;16.17;;;;;;;1.78;45.63;99154.91;7695640;32;40023;-79
2022/01/09 00:14:43;;;;;;;27.02;15.50;;;;;;;1.67;45.23;99144.94;7695897;32;39467;-79
2022/01/09 00:18:59;;;;;;;24.98;14.90;;;;;;;1.33;46.73;99144.62;7709228;32;37726;-79
2022/01/09 00:23:15;;;;;;;24.48;15.30;;;;;;;1.31;47.42;99135.94;7709290;32;39789;-78
2022/01/09 00:27:31;;;;;;;28.33;17.20;;;;;;;1.39;46.61;99127.56;7708844;32;40495;-79
2022/01/09 00:31:47;;;;;;;28.40;15.05;;;;;;;1.31;46.38;99131.41;7708885;32;38456;-78
2022/01/09 00:36:04;;;;;;;32.90;17.23;;;;;;;1.48;45.47;99125.37;7711098;32;37713;-79
2022/01/09 00:40:20;;;;;;;30.08;16.30;;;;;;;1.52;45.22;99121.22;7712700;32;39356;-78
2022/01/09 00:44:36;;;;;;;28.90;16.10;;;;;;;1.45;46.02;99112.41;7712656;32;39969;-78
2022/01/09 00:48:52;;;;;;;34.35;17.50;;;;;;;1.12;47.01;99111.81;7712524;32;37958;-78
2022/01/09 00:53:08;;;;;;;38.75;19.98;;;;;;;1.00;47.50;99110.97;7712555;32;37263;-79
2022/01/09 00:57:24;;;;;;;42.05;21.17;;;;;;;0.85;48.10;99105.16;7712414;32;39410;-79
2022/01/09 01:01:41;;;;;;;36.55;21.92;;;;;;;0.99;47.97;99098.56;7698642;32;39924;-78
2022/01/09 01:05:57;;;;;;;36.38;20.80;;;;;;;0.79;48.49;99093.44;7712361;32;37802;-79
2022/01/09 01:10:13;;;;;;;38.40;19.92;;;;;;;0.67;48.72;99089.88;7712455;32;36905;-78
2022/01/09 01:14:31;;;;;;;37.08;21.35;;;;;;;0.68;48.74;99084.28;7712256;32;39423;-79
2022/01/09 01:18:48;;;;;;;40.60;21.52;;;;;;;0.59;48.81;99077.59;7712193;32;40891;-78
2022/01/09 01:23:04;;;;;;;44.53;23.10;;;;;;;0.63;49.09;99068.03;7712228;32;38818;-78
2022/01/09 01:27:20;;;;;;;40.20;22.40;;;;;;;0.70;48.63;99057.22;7711935;32;37969;-78
2022/01/09 01:31:36;;;;;;;37.13;20.83;;;;;;;0.57;48.95;99055.53;7711960;32;39299;-78
2022/01/09 01:35:52;;;;;;;39.13;19.60;;;;;;;0.53;48.52;99054.34;7711977;32;40159;-78
2022/01/09 01:40:12;;;;;;;36.55;19.77;;;;;;;0.44;48.95;99042.28;7711782;32;38728;-79
2022/01/09 01:44:42;;;;;;;41.63;21.23;;;;;;;0.45;48.98;99031.34;7712002;32;37245;-78
2022/01/09 01:48:59;;;;;;;39.08;20.92;;;;;;;0.40;48.83;99031.19;7711562;32;40119;-78
2022/01/09 01:53:18;;;;;;;37.95;21.40;;;;;;;0.19;49.07;99035.13;7711724;32;40930;-78
2022/01/09 01:57:35;;;;;;;43.50;22.77;;;;;;;-0.08;49.58;99032.72;7711690;32;38095;-78
2022/01/09 02:01:51;;;;;;;43.28;22.37;;;;;;;0.06;49.29;99024.53;7698102;32;37013;-78
2022/01/09 02:06:07;;;;;;;43.13;23.00;;;;;;;-0.06;49.50;99014.53;7711792;32;39922;-79
2022/01/09 02:10:23;;;;;;;39.60;21.95;;;;;;;0.05;49.66;99017.53;7711619;32;40061;-78
2022/01/09 02:14:44;;;;;;;36.97;21.25;;;;;;;0.32;53.56;99018.87;7711408;32;38718;-79
2022/01/09 02:19:02;;;;;;;41.20;22.33;;;;;;;0.26;50.19;99009.06;7711515;32;37542;-79
2022/01/09 02:23:19;;;;;;;43.85;22.42;;;;;;;0.17;49.66;99005.88;7711633;32;38292;-79
2022/01/09 02:27:35;;;;;;;46.05;23.12;;;;;;;-0.03;50.07;99006.06;7711380;32;39612;-79
2022/01/09 02:31:51;;;;;;;51.30;24.73;;;;;;;-0.09;50.02;98996.22;7711323;32;38413;-79
2022/01/09 02:36:07;;;;;;;49.13;24.17;;;;;;;-0.15;50.06;98985.59;7711409;32;37773;-78
2022/01/09 02:40:23;;;;;;;48.97;25.80;;;;;;;-0.06;50.17;98989.63;7711354;32;39014;-78
2022/01/09 02:44:39;;;;;;;49.53;26.25;;;;;;;-0.08;50.28;98987.16;7711198;32;40852;-78
2022/01/09 02:48:57;;;;;;;46.42;25.62;;;;;;;-0.28;50.79;98979.31;7711088;32;37863;-78
2022/01/09 02:53:20;;;;;;;47.58;24.25;;;;;;;-0.48;50.98;98971.47;7711107;32;37882;-79
2022/01/09 02:57:36;;;;;;;44.85;22.90;;;;;;;-0.36;50.26;98973.41;7710723;32;39283;-79
2022/01/09 03:01:52;;;;;;;46.05;24.20;;;;;;;-0.20;49.68;98968.31;7710913;32;40895;-78
2022/01/09 03:06:09;;;;;;;44.42;23.08;;;;;;;-0.46;50.37;98965.91;7710824;32;38766;-78
2022/01/09 03:10:25;;;;;;;44.13;24.75;;;;;;;-0.36;50.45;98958.19;7710864;32;37775;-78
2022/01/09 03:14:41;;;;;;;45.88;24.00;;;;;;;-0.40;50.48;98957.81;7710783;32;39186;-79
2022/01/09 03:18:58;;;;;;;42.55;23.52;;;;;;;-0.26;49.88;98958.50;7710582;32;39920;-79
2022/01/09 03:23:14;;;;;;;46.40;25.25;;;;;;;-0.63;50.76;98952.25;7710502;32;38070;-78
2022/01/09 03:27:30;;;;;;;54.53;26.20;;;;;;;-0.81;51.75;98951.16;7710203;32;37309;-78
2022/01/09 03:31:46;;;;;;;47.83;24.67;;;;;;;-0.74;52.10;98952.94;7696572;32;40094;-78
2022/01/09 03:36:03;;;;;;;47.55;25.08;;;;;;;-0.83;52.52;98955.06;7710262;32;40012;-78
2022/01/09 03:40:21;;;;;;;52.40;26.30;;;;;;;-1.09;53.05;98948.87;7710085;32;38711;-78
2022/01/09 03:44:38;;;;;;;43.08;24.23;;;;;;;-0.98;52.91;98952.72;7710157;32;37608;-78
2022/01/09 03:48:54;;;;;;;47.62;24.12;;;;;;;-0.87;52.61;98951.19;7710134;32;40102;-78
2022/01/09 03:53:12;;;;;;;48.72;25.10;;;;;;;-1.01;52.71;98945.12;7709835;32;40817;-78
2022/01/09 03:57:28;;;;;;;48.63;24.12;;;;;;;-0.89;52.32;98943.38;7709708;32;38619;-78
2022/01/09 04:01:45;;;;;;;45.08;24.45;;;;;;;-0.93;52.26;98938.69;7709648;32;37955;-78
2022/01/09 04:06:01;;;;;;;46.40;24.42;;;;;;;-0.91;51.90;98939.28;7709583;32;39559;-78
2022/01/09 04:10:20;;;;;;;42.08;22.60;;;;;;;-0.96;51.75;98937.28;7710663;32;40827;-78
2022/01/09 04:14:36;;;;;;;49.38;24.00;;;;;;;-1.15;52.35;98941.72;7713068;32;37055;-78
2022/01/09 04:18:52;;;;;;;44.55;23.73;;;;;;;-1.00;51.99;98933.37;7712904;32;38017;-78
2022/01/09 04:23:08;;;;;;;44.83;25.52;;;;;;;-1.14;52.29;98924.63;7712883;32;39393;-78
2022/01/09 04:27:24;;;;;;;43.92;23.77;;;;;;;-1.02;52.03;98919.41;7712611;32;40050;-78
2022/01/09 04:31:40;;;;;;;52.00;23.08;;;;;;;-0.99;52.28;98921.66;7712701;32;38725;-78
2022/01/09 04:35:56;;;;;;;49.70;25.90;;;;;;;-0.95;51.79;98904.09;7712729;32;37240;-78
2022/01/09 04:40:14;;;;;;;53.35;25.20;;;;;;;-1.08;52.04;98906.91;7712661;32;40326;-78
2022/01/09 04:44:30;;;;;;;50.83;24.02;;;;;;;-1.21;52.83;98911.31;7712629;32;40022;-78
2022/01/09 04:48:48;;;;;;;42.05;22.67;;;;;;;-1.42;52.71;98898.28;7712512;32;38683;-78
2022/01/09 04:53:07;;;;;;;46.17;24.75;;;;;;;-1.39;52.73;98890.66;7712698;32;37314;-78
2022/01/09 04:57:23;;;;;;;40.80;23.57;;;;;;;-1.64;53.93;98903.97;7712590;32;38687;-78
2022/01/09 05:01:39;;;;;;;42.15;22.65;;;;;;;-1.57;53.82;98903.94;7712493;32;39910;-78
2022/01/09 05:05:55;;;;;;;44.88;23.10;;;;;;;-1.65;53.58;98905.00;7712263;32;38628;-77
2022/01/09 05:10:12;;;;;;;40.28;22.75;;;;;;;-1.64;53.39;98898.59;7712351;32;37416;-78
2022/01/09 05:14:28;;;;;;;53.33;22.58;;;;;;;-1.47;52.67;98904.28;7712337;32;40508;-78
2022/01/09 05:18:58;;;;;;;44.05;22.27;;;;;;;-1.34;52.25;98898.03;7712226;32;40854;-78
2022/01/09 05:23:14;;;;;;;43.75;22.87;;;;;;;-1.47;52.41;98903.47;7712165;32;37951;-78
2022/01/09 05:27:30;;;;;;;44.05;21.87;;;;;;;-1.40;52.60;98909.59;7711926;32;37285;-78
2022/01/09 05:31:48;;;;;;;45.15;23.33;;;;;;;-1.29;52.22;98906.22;7712123;32;39530;-78
2022/01/09 05:36:04;;;;;;;43.53;23.38;;;;;;;-1.26;52.00;98905.81;7712071;32;39906;-78
2022/01/09 05:40:21;;;;;;;51.72;22.45;;;;;;;-1.56;52.76;98908.25;7711789;32;38719;-78
2022/01/09 05:44:37;;;;;;;39.60;23.08;;;;;;;-1.40;52.61;98909.59;7711895;32;38286;-78
2022/01/09 05:48:53;;;;;;;42.67;23.30;;;;;;;-1.66;53.09;98907.88;7711853;32;39387;-78
2022/01/09 05:53:10;;;;;;;42.22;21.20;;;;;;;-1.33;52.41;98899.66;7712070;32;40015;-78
2022/01/09 05:57:26;;;;;;;42.00;22.80;;;;;;;-1.40;52.70;98907.72;7711757;32;37854;-78
2022/01/09 06:01:42;;;;;;;41.03;22.15;;;;;;;-1.58;53.24;98903.13;7711704;32;37944;-78
2022/01/09 06:05:58;;;;;;;41.13;23.65;;;;;;;-1.43;53.23;98907.34;7711775;32;39284;-78
2022/01/09 06:10:14;;;;;;;43.10;23.25;;;;;;;-1.70;54.37;98915.53;7698002;32;40759;-78
2022/01/09 06:14:30;;;;;;;42.17;21.62;;;;;;;-1.68;53.73;98912.63;7711560;32;38597;-78
2022/01/09 06:18:46;;;;;;;44.78;22.08;;;;;;;-1.59;53.14;98898.78;7711515;32;37316;-78
2022/01/09 06:23:02;;;;;;;41.70;21.15;;;;;;;-1.68;52.83;98897.41;7711657;32;40071;-78
2022/01/09 06:27:19;;;;;;;45.00;23.27;;;;;;;-2.17;54.43;98897.03;7711294;32;40790;-78
2022/01/09 06:31:35;;;;;;;45.08;21.65;;;;;;;-2.24;54.84;98909.56;7710998;32;38672;-78
2022/01/09 06:35:51;;;;;;;47.35;21.42;;;;;;;-1.75;53.91;98904.66;7697373;32;37434;-78
2022/01/09 06:40:08;;;;;;;43.38;21.15;;;;;;;-1.60;53.11;98905.19;7711285;32;39317;-77
2022/01/09 06:44:24;;;;;;;38.33;20.92;;;;;;;-1.63;53.27;98900.25;7711381;32;40123;-78
2022/01/09 06:48:41;;;;;;;42.45;22.08;;;;;;;-1.78;53.64;98903.22;7711179;32;38600;-78
2022/01/09 06:52:57;;;;;;;40.00;21.87;;;;;;;-1.96;53.94;98895.91;7711132;32;37212;-78
2022/01/09 06:57:13;;;;;;;38.50;21.40;;;;;;;-1.97;54.21;98898.78;7711049;32;40107;-78
2022/01/09 07:01:29;;;;;;;42.85;23.48;;;;;;;-1.94;54.21;98888.50;7710886;32;39855;-78
2022/01/09 07:05:45;;;;;;;49.00;22.10;;;;;;;-2.19;55.22;98893.75;7711013;32;37731;-78
2022/01/09 07:10:02;;;;;;;37.58;21.17;;;;;;;-1.86;54.48;98892.78;7710849;32;37842;-78
2022/01/09 07:14:18;;;;;;;43.80;23.10;;;;;;;-2.04;54.81;98890.78;7710720;32;39158;-78
2022/01/09 07:18:34;;;;;;;44.15;23.92;;;;;;;-2.13;55.81;98889.41;7710570;32;40793;-78
2022/01/09 07:22:50;;;;;;;37.95;21.52;;;;;;;-1.85;55.48;98885.59;7696877;32;37961;-78
2022/01/09 07:27:07;;;;;;;34.95;21.08;;;;;;;-1.60;55.36;98888.34;7710390;32;37489;-78
2022/01/09 07:31:23;;;;;;;38.67;22.13;;;;;;;-1.38;54.31;98883.44;7696704;32;40125;-78
2022/01/09 07:35:39;;;;;;;38.70;22.00;;;;;;;-1.74;55.41;98892.94;7710302;32;40828;-78
2022/01/09 07:39:55;;;;;;;47.55;24.33;;;;;;;-1.45;55.69;98882.69;7710137;32;37933;-78
2022/01/09 07:44:11;;;;;;;41.10;22.90;;;;;;;-1.38;56.44;98878.94;7710404;32;37993;-78
2022/01/09 07:48:27;;;;;;;40.90;21.40;;;;;;;-1.18;55.90;98873.44;7713348;32;39390;-78
2022/01/09 07:52:43;;;;;;;40.88;22.60;;;;;;;-0.89;55.21;98867.66;7713257;32;41230;-78
2022/01/09 07:56:59;;;;;;;41.05;23.42;;;;;;;-0.82;55.28;98871.06;7699408;32;38524;-81
2022/01/09 08:01:15;;;;;;;39.15;22.52;;;;;;;-1.02;56.24;98880.09;7699402;32;37212;-78
2022/01/09 08:05:31;;;;;;;42.83;22.83;;;;;;;-0.94;57.07;98873.66;7713151;32;39095;-78
2022/01/09 08:09:48;;;;;;;43.47;23.52;;;;;;;-1.06;57.65;98873.53;7713049;32;39765;-78
2022/01/09 08:14:04;;;;;;;43.95;22.87;;;;;;;-0.66;55.81;98850.94;7712971;32;37851;-79
2022/01/09 08:18:20;;;;;;;45.15;22.95;;;;;;;-0.73;55.93;98851.00;7712916;32;37494;-78
2022/01/09 08:22:36;;;;;;;40.85;23.12;;;;;;;-0.30;54.25;98852.00;7712900;32;40080;-78
2022/01/09 08:26:52;;;;;;;48.35;24.87;;;;;;;-0.25;54.37;98865.53;7712646;32;40133;-78
2022/01/09 08:31:09;;;;;;;48.90;25.45;;;;;;;-0.26;55.44;98861.22;7712725;32;38022;-78
2022/01/09 08:35:25;;;;;;;44.47;24.05;;;;;;;-0.36;54.40;98867.13;7712729;32;37948;-78
2022/01/09 08:39:42;;;;;;;43.42;23.67;;;;;;;0.04;54.32;98868.50;7712577;32;39369;-81
2022/01/09 08:44:01;;;;;;;44.63;23.87;;;;;;;0.13;54.41;98875.19;7698900;32;40891;-79
2022/01/09 08:48:18;;;;;;;47.08;24.05;;;;;;;0.13;54.17;98878.69;7712639;32;37965;-79
2022/01/09 08:52:34;;;;;;;38.95;22.40;;;;;;;0.63;52.70;98858.00;7712579;32;37175;-80
2022/01/09 08:56:50;;;;;;;43.97;22.52;;;;;;;1.18;59.10;98867.63;7712197;32;39292;-79
2022/01/09 09:01:06;;;;;;;43.50;22.02;;;;;;;1.55;54.28;98870.06;7712357;32;39920;-79
2022/01/09 09:05:22;;;;;;;37.88;20.10;;;;;;;1.39;52.38;98856.28;7712330;32;38680;-79
2022/01/09 09:09:38;;;;;;;41.58;21.73;;;;;;;2.01;52.43;98854.91;7712314;32;37305;-79
2022/01/09 09:13:54;;;;;;;37.00;20.58;;;;;;;2.16;50.36;98849.81;7712401;32;39382;-79
2022/01/09 09:18:10;;;;;;;37.40;21.40;;;;;;;2.04;49.49;98846.38;7712203;32;39965;-80
2022/01/09 09:22:27;;;;;;;42.50;22.80;;;;;;;2.27;49.15;98848.13;7711932;32;38007;-80
2022/01/09 09:26:43;;;;;;;39.63;21.15;;;;;;;2.55;47.77;98849.16;7711992;32;37418;-80
2022/01/09 09:30:59;;;;;;;42.65;22.27;;;;;;;2.72;46.93;98846.50;7712195;32;39821;-79
2022/01/09 09:35:15;;;;;;;41.40;24.45;;;;;;;2.20;48.94;98850.97;7712086;32;40571;-80
2022/01/09 09:39:32;;;;;;;35.60;21.45;;;;;;;2.67;47.96;98841.03;7711956;32;37614;-80
2022/01/09 09:43:48;;;;;;;39.17;20.10;;;;;;;3.08;46.29;98833.63;7698614;32;37189;-79
2022/01/09 09:48:04;;;;;;;37.17;22.00;;;;;;;2.88;46.55;98839.50;7711852;32;40077;-79
2022/01/09 09:52:20;;;;;;;37.35;21.62;;;;;;;2.82;47.01;98839.41;7711837;32;40871;-79
2022/01/09 09:56:37;;;;;;;34.92;21.00;;;;;;;2.45;48.26;98844.44;7711787;32;38002;-79
2022/01/09 10:00:57;;;;;;;36.10;21.27;;;;;;;2.30;48.30;98833.41;7712468;32;37169;-80
2022/01/09 10:05:15;;;;;;;37.30;20.00;;;;;;;1.65;50.56;98860.34;7711659;32;40509;-79
2022/01/09 10:09:31;;;;;;;35.90;20.25;;;;;;;2.55;48.30;98858.09;7710799;32;40059;-79
2022/01/09 10:14:07;;;;;;;37.85;19.98;;;;;;;2.46;48.39;98853.31;7711578;32;37647;-80
2022/01/09 10:18:47;;;;;;;34.45;19.87;;;;;;;2.52;47.85;98850.50;7700102;32;34933;-79
2022/01/09 10:23:03;;;;;;;36.58;20.60;;;;;;;2.72;47.84;98865.34;7711521;32;39283;-81
2022/01/09 10:27:34;;;;;;;34.53;20.37;;;;;;;2.31;48.95;98861.91;7711142;32;40752;-80
2022/01/09 10:31:51;;;;;;;32.92;20.20;;;;;;;3.60;46.46;98841.38;7711382;32;38003;-80
2022/01/09 10:36:09;;;;;;;35.65;18.50;;;;;;;3.84;45.55;98851.91;7711458;32;37972;-79
2022/01/09 10:40:29;;;;;;;36.85;19.70;;;;;;;3.86;44.96;98836.28;7711242;32;40055;-79
2022/01/09 10:44:45;;;;;;;32.95;17.80;;;;;;;4.28;43.95;98825.72;7711395;32;40009;-80
2022/01/09 10:49:01;;;;;;;37.13;19.85;;;;;;;3.89;44.34;98835.81;7689787;32;248221;-81
2022/01/09 10:53:30;;;;;;;37.65;19.10;;;;;;;4.43;43.63;98830.47;7711226;32;37217;-81
2022/01/09 10:57:46;;;;;;;36.22;18.92;;;;;;;4.63;42.73;98831.72;7711186;32;39816;-81
2022/01/09 11:02:03;;;;;;;34.42;19.05;;;;;;;4.69;42.89;98819.87;7711004;32;40037;-75
2022/01/09 11:06:20;;;;;;;35.13;20.15;;;;;;;5.16;41.75;98834.59;7697277;32;38659;-76
2022/01/09 11:10:36;;;;;;;36.53;20.05;;;;;;;5.55;41.73;98832.38;7710894;32;37241;-77
2022/01/09 11:14:53;;;;;;;32.83;19.95;;;;;;;5.27;42.75;98820.88;7697319;32;39383;-77
2022/01/09 11:19:15;;;;;;;34.25;21.40;;;;;;;5.63;41.53;98817.56;7710492;32;39880;-78
2022/01/09 11:24:12;;;;;;;33.65;19.75;;;;;;;5.76;41.27;98810.84;7710635;32;38614;-77
2022/01/09 11:28:33;;;;;;;35.85;20.48;;;;;;;5.50;41.18;98815.31;8024358;26;37333;-79
2022/01/09 11:33:16;;;;;;;37.90;20.58;;;;;;;5.35;42.30;98811.47;7697351;32;39355;-77
2022/01/09 11:37:45;;;;;;;37.30;22.30;;;;;;;5.41;42.52;98810.41;7697788;32;40006;-79
2022/01/09 11:42:14;;;;;;;36.63;20.60;;;;;;;5.86;41.18;98815.50;7710167;32;37926;-79
2022/01/09 11:46:47;;;;;;;36.08;20.80;;;;;;;6.01;40.51;98812.87;7710137;32;38057;-80
2022/01/09 11:51:06;;;;;;;38.37;21.13;;;;;;;5.50;41.60;98808.00;7698203;32;39168;-81
2022/01/09 11:55:41;;;;;;;39.35;20.17;;;;;;;5.37;41.93;98803.09;7709979;32;40229;-82
2022/01/09 11:59:57;;;;;;;36.60;21.55;;;;;;;4.89;46.18;98798.44;7709782;32;37577;-79
2022/01/09 12:04:32;;;;;;;41.15;21.77;;;;;;;5.20;43.42;98787.84;7709806;32;37122;-75
2022/01/09 12:08:57;;;;;;;44.40;21.62;;;;;;;4.95;43.08;98793.09;7709681;32;39283;-77
2022/01/09 12:13:52;;;;;;;42.20;22.65;;;;;;;5.16;42.18;98781.34;7709494;32;38884;-76
2022/01/09 12:18:27;;;;;;;41.80;21.83;;;;;;;4.80;43.22;98775.72;7626096;32;37847;-77
2022/01/09 12:22:44;;;;;;;38.28;21.98;;;;;;;3.55;46.02;98784.69;7678651;32;38633;-76
2022/01/09 12:27:20;;;;;;;41.08;21.80;;;;;;;4.21;45.07;98786.50;7709316;32;39335;-77
2022/01/09 12:31:37;;;;;;;38.65;21.60;;;;;;;4.26;45.51;98781.16;7710364;32;39925;-77
2022/01/09 12:36:11;;;;;;;36.65;20.50;;;;;;;4.29;44.94;98789.59;7712819;32;37800;-77
2022/01/09 12:40:29;;;;;;;36.33;23.15;;;;;;;4.27;45.60;98796.28;7712662;32;37925;-76
2022/01/09 12:44:54;;;;;;;39.78;21.98;;;;;;;3.90;46.36;98786.22;7712739;32;39861;-75
2022/01/09 12:49:12;;;;;;;40.22;22.98;;;;;;;4.39;45.35;98778.06;7712668;32;40859;-74
2022/01/09 12:53:29;;;;;;;36.53;22.10;;;;;;;4.53;45.13;98773.06;7712556;32;37983;-75
2022/01/09 12:57:52;;;;;;;38.38;20.88;;;;;;;4.59;44.91;98779.31;7712507;32;38422;-73
2022/01/09 13:02:10;;;;;;;44.80;23.33;;;;;;;4.26;45.39;98776.59;7712306;32;39326;-73
2022/01/09 13:06:32;;;;;;;40.12;22.40;;;;;;;4.31;44.65;98776.66;7712456;32;42364;-75
2022/01/09 13:10:57;;;;;;;46.78;23.52;;;;;;;3.84;45.99;98779.13;7712416;32;37892;-74
2022/01/09 13:15:13;;;;;;;43.00;23.55;;;;;;;3.98;45.81;98776.84;7712415;32;37227;-74
2022/01/09 13:19:29;;;;;;;44.72;23.42;;;;;;;4.09;45.77;98784.78;7712053;32;39293;-74
2022/01/09 13:24:13;;;;;;;40.25;22.00;;;;;;;4.19;45.60;98780.56;7712303;32;39988;-74
2022/01/09 13:28:31;;;;;;;41.40;22.10;;;;;;;4.05;45.75;98766.66;7712093;32;37714;-74
2022/01/09 13:32:47;;;;;;;46.63;22.62;;;;;;;4.17;45.35;98775.41;7712152;32;38405;-73
2022/01/09 13:37:08;;;;;;;38.90;20.90;;;;;;;4.02;45.85;98773.41;7712264;32;39091;-74
2022/01/09 13:41:27;;;;;;;41.37;22.62;;;;;;;3.91;46.00;98774.34;7711319;32;39896;-72
2022/01/09 13:45:45;;;;;;;41.78;23.25;;;;;;;3.56;46.61;98772.88;7711612;32;37707;-76
2022/01/09 13:50:02;;;;;;;40.17;22.50;;;;;;;3.81;45.78;98771.53;7711967;32;37574;-73
2022/01/09 13:54:21;;;;;;;36.35;21.92;;;;;;;3.64;46.03;98764.34;7711870;32;39306;-73
2022/01/09 13:58:37;;;;;;;40.12;21.52;;;;;;;3.89;45.76;98776.47;7711884;32;39826;-73
2022/01/09 14:02:56;;;;;;;35.85;21.20;;;;;;;3.64;46.36;98780.50;7711695;32;37880;-73
2022/01/09 14:07:30;;;;;;;43.60;23.40;;;;;;;3.63;46.46;98786.97;7711964;32;37275;-73
2022/01/09 14:12:00;;;;;;;40.33;23.25;;;;;;;3.56;46.99;98794.44;7711523;32;39276;-74
2022/01/09 14:16:17;;;;;;;46.53;23.58;;;;;;;3.48;47.21;98786.75;7711656;32;41067;-74
2022/01/09 14:20:33;;;;;;;43.55;20.85;;;;;;;3.54;47.07;98783.88;7710873;32;37917;-73
2022/01/09 14:25:12;;;;;;;40.53;22.70;;;;;;;3.67;46.56;98801.56;7709866;32;37829;-73
2022/01/09 14:29:39;;;;;;;39.92;22.27;;;;;;;3.46;47.28;98808.56;7710925;32;38966;-74
2022/01/09 14:33:58;;;;;;;41.70;21.80;;;;;;;3.42;47.21;98793.97;7711176;32;40731;-74
2022/01/09 14:38:29;;;;;;;39.78;21.05;;;;;;;3.59;46.76;98799.31;7711465;32;38638;-74
2022/01/09 14:42:45;;;;;;;35.22;20.92;;;;;;;3.38;46.93;98804.44;7711338;32;37892;-74
2022/01/09 14:47:02;;;;;;;37.28;21.83;;;;;;;3.70;45.73;98801.06;7711304;32;39297;-73
2022/01/09 14:51:19;;;;;;;38.50;20.85;;;;;;;3.63;45.66;98803.13;7711233;32;40814;-74
2022/01/09 14:55:36;;;;;;;39.63;22.60;;;;;;;3.82;45.72;98814.41;7710626;32;38565;-74
2022/01/09 14:59:52;;;;;;;53.67;24.85;;;;;;;3.59;46.31;98818.19;7711152;32;37302;-74
2022/01/09 15:04:08;;;;;;;46.80;22.50;;;;;;;3.61;46.36;98816.06;7711117;32;39545;-73
2022/01/09 15:08:25;;;;;;;37.97;22.35;;;;;;;3.57;46.34;98806.84;7710937;32;40428;-74
2022/01/09 15:12:41;;;;;;;41.35;22.70;;;;;;;3.28;46.91;98817.78;7710792;32;37873;-73
2022/01/09 15:16:57;;;;;;;50.22;23.12;;;;;;;3.39;47.29;98816.03;7710914;32;38104;-74
2022/01/09 15:21:13;;;;;;;47.28;24.45;;;;;;;3.33;47.25;98825.13;7710808;32;39952;-74
2022/01/09 15:25:30;;;;;;;88.43;40.92;;;;;;;3.02;47.88;98827.34;7710752;32;39901;-74
2022/01/09 15:29:47;;;;;;;76.03;36.50;;;;;;;3.39;46.83;98824.09;7696773;32;38600;-73
2022/01/09 15:34:03;;;;;;;54.45;27.52;;;;;;;3.03;47.88;98836.25;7710460;32;37942;-74
2022/01/09 15:38:19;;;;;;;43.75;23.30;;;;;;;3.33;47.18;98822.41;7696715;32;39439;-73
2022/01/09 15:42:35;;;;;;;40.03;21.87;;;;;;;3.07;47.41;98826.59;7710281;32;40730;-74
2022/01/09 15:46:51;;;;;;;42.95;23.15;;;;;;;3.33;46.74;98831.31;7709765;32;37719;-73
2022/01/09 15:51:09;;;;;;;62.08;28.92;;;;;;;3.19;47.55;98838.91;7709034;32;37771;-73
2022/01/09 15:55:29;;;;;;;91.60;47.53;;;;;;;3.34;46.78;98835.63;7709634;32;39295;-74
2022/01/09 15:59:49;;;;;;;83.53;41.17;;;;;;;3.24;46.89;98843.56;7709921;32;41445;-74
2022/01/09 16:04:05;;;;;;;49.25;25.10;;;;;;;3.33;46.79;98843.97;7709709;32;37754;-74
2022/01/09 16:08:24;;;;;;;43.00;22.80;;;;;;;3.32;46.89;98839.62;7712702;32;37009;-73
2022/01/09 16:12:48;;;;;;;38.88;21.50;;;;;;;3.27;47.65;98844.94;7713150;32;40011;-73
2022/01/09 16:17:08;;;;;;;42.97;23.60;;;;;;;3.19;47.02;98856.94;7712991;32;39946;-74
2022/01/09 16:21:24;;;;;;;44.88;23.27;;;;;;;3.30;46.76;98853.34;7712762;32;37965;-74
2022/01/09 16:25:40;;;;;;;41.28;22.67;;;;;;;3.52;46.35;98847.19;7699053;32;37920;-73
2022/01/09 16:30:09;;;;;;;41.63;22.85;;;;;;;3.19;46.67;98857.78;7712666;32;39390;-74
2022/01/09 16:34:25;;;;;;;39.83;21.87;;;;;;;3.32;46.74;98856.59;7712863;32;40551;-74
2022/01/09 16:38:42;;;;;;;40.25;21.40;;;;;;;3.27;46.80;98863.81;7712413;32;38669;-75
2022/01/09 16:42:59;;;;;;;43.17;22.55;;;;;;;3.50;46.35;98865.47;7712345;32;37552;-74
2022/01/09 16:47:18;;;;;;;46.15;24.95;;;;;;;3.15;47.03;98877.34;7712403;32;40153;-73
2022/01/09 16:51:37;;;;;;;40.12;23.60;;;;;;;3.45;47.05;98881.56;7712321;32;40868;-74
2022/01/09 16:55:53;;;;;;;44.88;25.15;;;;;;;3.26;47.45;98881.03;7712240;32;38597;-73
2022/01/09 17:00:12;;;;;;;44.38;23.02;;;;;;;3.27;47.77;98886.16;7712269;32;36989;-74
2022/01/09 17:04:28;;;;;;;47.85;23.15;;;;;;;3.53;47.04;98886.53;7712251;32;39521;-74
2022/01/09 17:08:45;;;;;;;43.53;22.65;;;;;;;3.06;47.96;98889.63;7712268;32;40848;-75
2022/01/09 17:13:01;;;;;;;39.15;22.15;;;;;;;2.78;48.68;98899.38;7712061;32;38205;-74
2022/01/09 17:17:21;;;;;;;47.47;23.45;;;;;;;3.11;48.14;98903.16;7711868;32;38036;-75
2022/01/09 17:21:37;;;;;;;35.20;21.17;;;;;;;3.09;47.90;98906.09;7711931;32;40144;-75
2022/01/09 17:25:54;;;;;;;42.30;20.98;;;;;;;3.35;47.32;98907.31;7711927;32;39784;-75
2022/01/09 17:30:11;;;;;;;40.70;20.80;;;;;;;3.29;47.44;98912.88;7711936;32;38058;-74
2022/01/09 17:34:28;;;;;;;39.72;21.37;;;;;;;3.47;46.85;98917.19;7711927;32;38014;-74
2022/01/09 17:38:45;;;;;;;36.20;20.17;;;;;;;2.98;47.87;98926.66;7711845;32;39617;-74
2022/01/09 17:43:01;;;;;;;34.40;20.70;;;;;;;3.38;47.04;98925.69;7711663;32;39878;-74
2022/01/09 17:47:17;;;;;;;43.13;23.17;;;;;;;3.13;47.74;98933.34;7711675;32;37657;-74
2022/01/09 17:51:33;;;;;;;37.70;21.65;;;;;;;3.24;47.29;98935.13;7711668;32;37023;-74
2022/01/09 17:55:49;;;;;;;39.50;21.02;;;;;;;3.14;47.54;98946.59;7711677;32;40053;-74
2022/01/09 18:00:08;;;;;;;38.38;21.10;;;;;;;3.17;47.40;98951.50;7711576;32;39806;-74
2022/01/09 18:04:24;;;;;;;38.88;21.00;;;;;;;3.15;47.58;98947.38;7711346;32;38719;-74
2022/01/09 18:08:40;;;;;;;37.35;20.92;;;;;;;3.15;47.52;98948.19;7711410;32;37502;-74
2022/01/09 18:12:57;;;;;;;37.97;19.85;;;;;;;3.15;47.53;98950.09;7711476;32;39900;-74
2022/01/09 18:17:14;;;;;;;36.40;22.05;;;;;;;3.38;47.11;98949.94;7711440;32;39793;-73
2022/01/09 18:21:31;;;;;;;37.58;19.58;;;;;;;3.08;47.57;98952.94;7710349;32;37852;-73
2022/01/09 18:25:47;;;;;;;34.78;19.75;;;;;;;3.21;47.48;98959.91;7707623;32;37199;-74
2022/01/09 18:30:06;;;;;;;73.05;31.60;;;;;;;3.09;47.91;98964.53;7709570;32;39030;-74
2022/01/09 18:34:22;;;;;;;91.87;37.92;;;;;;;3.26;47.72;98976.16;7710690;32;41051;-74
2022/01/09 18:38:38;;;;;;;69.72;31.25;;;;;;;3.41;47.21;98982.84;7710724;32;37932;-74
2022/01/09 18:42:55;;;;;;;111.32;40.28;;;;;;;3.33;47.51;98973.28;7710834;32;37862;-74
2022/01/09 18:47:11;;;;;;;83.10;36.70;;;;;;;3.08;48.30;98984.44;7709990;32;40028;-73
2022/01/09 18:51:27;;;;;;;56.22;28.67;;;;;;;3.11;48.11;98983.97;7684419;32;40012;-74
2022/01/09 18:55:46;;;;;;;51.13;24.73;;;;;;;2.98;48.69;98993.13;7683503;32;38768;-74
2022/01/09 19:00:04;;;;;;;42.30;22.50;;;;;;;3.32;47.62;98998.59;7702144;32;37014;-74
2022/01/09 19:04:20;;;;;;;44.85;22.48;;;;;;;3.32;47.67;98996.69;7696898;32;39122;-74
2022/01/09 19:08:36;;;;;;;45.72;22.35;;;;;;;3.21;47.92;98994.91;7710504;32;40729;-74
2022/01/09 19:12:53;;;;;;;43.40;22.83;;;;;;;3.29;47.76;98997.19;7710382;32;38023;-73
2022/01/09 19:17:09;;;;;;;41.53;20.92;;;;;;;2.91;48.55;99006.75;7709807;32;37229;-73
2022/01/09 19:21:25;;;;;;;40.35;20.58;;;;;;;2.96;48.50;98995.25;7710219;32;39345;-74
2022/01/09 19:25:43;;;;;;;36.03;20.42;;;;;;;2.97;48.62;98996.91;7709915;32;40715;-73
2022/01/09 19:29:59;;;;;;;41.97;21.02;;;;;;;3.08;48.46;98992.53;7710021;32;36205;-74
2022/01/09 19:34:15;;;;;;;43.72;21.48;;;;;;;3.06;48.47;98997.34;7709919;32;38097;-74
2022/01/09 19:38:32;;;;;;;41.42;21.27;;;;;;;3.36;47.81;98995.19;7709790;32;39811;-74
2022/01/09 19:42:49;;;;;;;41.40;21.35;;;;;;;3.18;47.94;98993.50;7709902;32;40712;-72
2022/01/09 19:47:06;;;;;;;43.60;21.58;;;;;;;3.08;48.55;99003.28;7709306;32;37851;-73
2022/01/09 19:51:22;;;;;;;42.05;22.52;;;;;;;3.06;48.30;99000.03;7709895;32;37223;-74
2022/01/09 19:55:38;;;;;;;40.95;21.58;;;;;;;2.84;49.29;99010.66;7709703;32;39295;-74